createdAt,value
2017-10-14T00:01:01.971Z,10.23
2017-10-14T00:03:30.666Z,9.07
2017-10-14T00:06:00.167Z,9.20
2017-10-14T00:08:28.854Z,8.93
2017-10-14T00:10:57.532Z,8.70
2017-10-14T00:13:26.238Z,9.07
2017-10-14T00:15:54.729Z,8.68
2017-10-14T00:18:24.198Z,9.35
2017-10-14T00:20:52.913Z,8.80
2017-10-14T00:23:21.581Z,9.38
2017-10-14T00:25:50.360Z,8.40
2017-10-14T00:28:19.089Z,7.55
2017-10-14T00:30:48.537Z,8.55
2017-10-14T00:33:17.219Z,8.60
2017-10-14T00:35:45.936Z,10.50
2017-10-14T00:38:14.636Z,8.10
2017-10-14T00:40:43.314Z,9.18
2017-10-14T00:43:12.032Z,9.25
2017-10-14T00:45:40.701Z,9.32
2017-10-14T00:48:09.379Z,9.13
2017-10-14T00:50:38.134Z,9.20
2017-10-14T00:53:06.793Z,8.60
2017-10-14T00:55:34.790Z,8.43
2017-10-14T00:58:02.806Z,8.63
2017-10-14T01:00:30.805Z,9.23
2017-10-14T01:02:59.485Z,8.50
2017-10-14T01:05:27.870Z,8.90
2017-10-14T01:07:56.362Z,8.80
2017-10-14T01:10:25.038Z,8.23
2017-10-14T01:12:53.760Z,9.02
2017-10-14T01:15:22.430Z,8.23
2017-10-14T01:17:51.109Z,7.97
2017-10-14T01:20:19.123Z,8.20
2017-10-14T01:22:47.806Z,8.30
2017-10-14T01:25:16.139Z,8.35
2017-10-14T01:27:44.525Z,8.50
2017-10-14T01:30:12.879Z,8.32
2017-10-14T01:32:42.326Z,8.65
2017-10-14T01:35:10.346Z,10.60
2017-10-14T01:37:38.688Z,8.43
2017-10-14T01:40:06.669Z,8.57
2017-10-14T01:42:35.394Z,8.45
2017-10-14T01:45:04.866Z,7.95
2017-10-14T01:47:33.438Z,8.02
2017-10-14T01:50:02.137Z,8.88
2017-10-14T01:52:30.466Z,9.23
2017-10-14T01:54:59.893Z,9.27
2017-10-14T01:57:28.260Z,9.00
2017-10-14T01:59:56.587Z,8.07
2017-10-14T02:02:25.258Z,8.43
2017-10-14T02:04:53.974Z,8.40
2017-10-14T02:07:22.656Z,8.85
2017-10-14T02:09:51.326Z,9.52
2017-10-14T02:12:20.049Z,9.45
2017-10-14T02:14:49.516Z,9.05
2017-10-14T02:17:18.223Z,11.30
2017-10-14T02:19:46.931Z,9.55
2017-10-14T02:22:16.379Z,9.00
2017-10-14T02:24:45.058Z,7.78
2017-10-14T02:27:13.782Z,8.05
2017-10-14T02:29:42.466Z,8.70
2017-10-14T02:32:11.141Z,7.93
2017-10-14T02:34:39.898Z,7.85
2017-10-14T02:37:08.585Z,8.50
2017-10-14T02:39:37.511Z,9.45
2017-10-14T02:42:06.214Z,8.35
2017-10-14T02:44:34.892Z,8.00
2017-10-14T02:47:03.611Z,8.00
2017-10-14T02:49:33.070Z,7.65
2017-10-14T02:52:01.766Z,9.18
2017-10-14T02:54:30.454Z,9.23
2017-10-14T02:56:59.145Z,8.38
2017-10-14T02:59:27.861Z,9.35
2017-10-14T03:01:56.615Z,11.00
2017-10-14T03:04:26.325Z,9.43
2017-10-14T03:06:54.997Z,9.48
2017-10-14T03:09:23.706Z,10.77
2017-10-14T03:11:52.411Z,8.00
2017-10-14T03:14:21.094Z,9.90
2017-10-14T03:16:49.766Z,8.88
2017-10-14T03:19:18.453Z,8.25
2017-10-14T03:21:47.138Z,8.07
2017-10-14T03:24:15.822Z,9.27
2017-10-14T03:26:44.528Z,9.52
2017-10-14T03:29:13.217Z,11.27
2017-10-14T03:31:41.918Z,10.50
2017-10-14T03:34:11.392Z,10.27
2017-10-14T03:36:40.077Z,9.63
2017-10-14T03:39:08.761Z,10.15
2017-10-14T03:41:37.465Z,9.23
2017-10-14T03:44:06.137Z,9.13
2017-10-14T03:46:34.823Z,9.50
2017-10-14T03:49:03.521Z,10.02
2017-10-14T03:51:32.224Z,10.00
2017-10-14T03:54:00.903Z,9.88
2017-10-14T03:56:29.415Z,9.38
2017-10-14T03:58:58.673Z,10.95
2017-10-14T04:01:27.162Z,11.00
2017-10-14T04:03:55.863Z,11.27
2017-10-14T04:06:24.361Z,10.00
2017-10-14T04:08:53.046Z,10.35
2017-10-14T04:11:22.495Z,8.90
2017-10-14T04:13:51.174Z,9.30
2017-10-14T04:16:19.854Z,10.05
2017-10-14T04:18:48.566Z,10.68
2017-10-14T04:21:17.262Z,10.35
2017-10-14T04:23:45.942Z,10.90
2017-10-14T04:26:14.657Z,11.50
2017-10-14T04:28:44.110Z,11.40
2017-10-14T04:31:12.794Z,11.95
2017-10-14T04:33:41.187Z,10.07
2017-10-14T04:36:09.865Z,11.32
2017-10-14T04:38:38.545Z,9.95
2017-10-14T04:41:07.253Z,11.32
2017-10-14T04:43:35.929Z,12.05
2017-10-14T04:46:04.609Z,12.15
2017-10-14T04:48:33.320Z,12.70
2017-10-14T04:51:02.030Z,11.57
2017-10-14T04:53:30.740Z,11.60
2017-10-14T04:56:00.217Z,10.75
2017-10-14T04:58:28.905Z,11.30
2017-10-14T05:00:57.593Z,11.75
2017-10-14T05:03:26.264Z,12.15
2017-10-14T05:05:54.815Z,11.52
2017-10-14T05:08:23.333Z,10.88
2017-10-14T05:10:52.253Z,10.70
2017-10-14T05:13:20.954Z,11.15
2017-10-14T05:15:50.396Z,10.65
2017-10-14T05:18:19.076Z,10.68
2017-10-14T05:20:47.775Z,8.10
2017-10-14T05:23:16.454Z,9.68
2017-10-14T05:25:45.137Z,9.80
2017-10-14T05:28:13.849Z,9.45
2017-10-14T05:30:42.544Z,11.40
2017-10-14T05:33:11.239Z,10.32
2017-10-14T05:35:39.965Z,10.65
2017-10-14T05:38:08.645Z,10.20
2017-10-14T05:40:37.164Z,11.60
2017-10-14T05:43:05.870Z,10.70
2017-10-14T05:45:34.566Z,9.88
2017-10-14T05:48:03.251Z,10.52
2017-10-14T05:50:31.953Z,10.60
2017-10-14T05:53:00.650Z,10.73
2017-10-14T05:55:29.330Z,9.55
2017-10-14T05:57:58.031Z,10.10
2017-10-14T06:00:27.498Z,10.30
2017-10-14T06:02:55.989Z,9.82
2017-10-14T06:05:23.810Z,9.23
2017-10-14T06:07:52.493Z,10.80
2017-10-14T06:10:21.175Z,8.90
2017-10-14T06:12:49.869Z,8.60
2017-10-14T06:15:18.555Z,9.52
2017-10-14T06:17:47.232Z,9.30
2017-10-14T06:20:16.732Z,9.68
2017-10-14T06:22:46.178Z,8.60
2017-10-14T06:25:14.863Z,7.40
2017-10-14T06:27:43.580Z,8.10
2017-10-14T06:30:12.258Z,8.43
2017-10-14T06:32:40.942Z,8.50
2017-10-14T06:35:09.682Z,8.50
2017-10-14T06:37:38.359Z,9.32
2017-10-14T06:40:06.782Z,9.80
2017-10-14T06:42:35.475Z,8.43
2017-10-14T06:45:03.886Z,6.57
2017-10-14T06:47:32.301Z,7.57
2017-10-14T06:50:00.737Z,8.20
2017-10-14T06:52:29.913Z,7.97
2017-10-14T06:54:58.309Z,7.73
2017-10-14T06:57:27.511Z,7.30
2017-10-14T06:59:55.923Z,7.27
2017-10-14T07:02:24.321Z,6.53
2017-10-14T07:04:52.755Z,8.30
2017-10-14T07:07:21.177Z,8.33
2017-10-14T07:09:49.593Z,9.00
2017-10-14T07:12:18.020Z,9.20
2017-10-14T07:14:46.421Z,7.70
2017-10-14T07:17:14.837Z,7.50
2017-10-14T07:19:43.291Z,7.73
2017-10-14T07:22:11.699Z,6.20
2017-10-14T07:24:40.102Z,6.60
2017-10-14T07:27:09.290Z,6.07
2017-10-14T07:29:38.468Z,7.30
2017-10-14T07:32:06.870Z,6.03
2017-10-14T07:34:36.074Z,7.37
2017-10-14T07:37:05.250Z,5.73
2017-10-14T07:39:33.650Z,5.47
2017-10-14T07:42:02.658Z,4.60
2017-10-14T07:44:31.817Z,5.87
2017-10-14T07:47:00.239Z,4.70
2017-10-14T07:49:28.706Z,5.37
2017-10-14T07:51:57.881Z,5.37
2017-10-14T07:54:26.290Z,5.30
2017-10-14T07:56:55.491Z,5.50
2017-10-14T07:59:23.900Z,5.57
2017-10-14T08:01:52.299Z,4.70
2017-10-14T08:04:20.760Z,4.93
2017-10-14T08:06:49.193Z,5.30
2017-10-14T08:09:17.593Z,6.00
2017-10-14T08:11:46.046Z,6.13
2017-10-14T08:14:14.472Z,4.87
2017-10-14T08:16:42.909Z,7.33
2017-10-14T08:19:11.354Z,5.10
2017-10-14T08:21:39.768Z,4.57
2017-10-14T08:24:08.178Z,4.83
2017-10-14T08:26:36.597Z,5.27
2017-10-14T08:29:05.116Z,5.63
2017-10-14T08:31:34.354Z,4.93
2017-10-14T08:34:02.786Z,5.90
2017-10-14T08:36:31.193Z,5.97
2017-10-14T08:39:00.467Z,5.73
2017-10-14T08:41:28.891Z,6.37
2017-10-14T08:43:57.337Z,6.27
2017-10-14T08:46:25.847Z,5.97
2017-10-14T08:48:54.258Z,5.50
2017-10-14T08:51:22.673Z,5.90
2017-10-14T08:53:51.121Z,6.43
2017-10-14T08:56:19.546Z,5.33
2017-10-14T08:58:48.005Z,6.63
2017-10-14T09:01:16.256Z,5.47
2017-10-14T09:03:44.682Z,6.37
2017-10-14T09:06:13.087Z,6.90
2017-10-14T09:08:42.322Z,5.77
2017-10-14T09:11:10.721Z,5.90
2017-10-14T09:13:39.131Z,5.57
2017-10-14T09:16:07.565Z,5.67
2017-10-14T09:18:35.962Z,5.53
2017-10-14T09:21:05.144Z,6.13
2017-10-14T09:23:33.869Z,4.90
2017-10-14T09:26:02.326Z,5.60
2017-10-14T09:28:30.555Z,5.10
2017-10-14T09:30:59.751Z,5.30
2017-10-14T09:33:28.937Z,6.40
2017-10-14T09:35:58.125Z,5.77
2017-10-14T09:38:26.577Z,6.00
2017-10-14T09:40:54.798Z,5.90
2017-10-14T09:43:23.981Z,5.07
2017-10-14T09:45:52.393Z,5.70
2017-10-14T09:48:21.596Z,5.13
2017-10-14T09:50:49.998Z,5.73
2017-10-14T09:53:18.395Z,4.70
2017-10-14T09:55:46.805Z,4.83
2017-10-14T09:58:15.210Z,5.87
2017-10-14T10:00:44.411Z,6.23
2017-10-14T10:03:12.817Z,6.00
2017-10-14T10:05:41.233Z,5.10
2017-10-14T10:08:09.657Z,6.37
2017-10-14T10:10:38.819Z,5.40
2017-10-14T10:13:07.226Z,6.90
2017-10-14T10:15:35.658Z,5.90
2017-10-14T10:18:04.066Z,7.40
2017-10-14T10:20:32.471Z,7.13
2017-10-14T10:23:01.678Z,5.50
2017-10-14T10:25:30.114Z,6.13
2017-10-14T10:27:58.543Z,6.77
2017-10-14T10:30:26.986Z,6.00
2017-10-14T10:32:55.457Z,6.87
2017-10-14T10:35:24.720Z,6.93
2017-10-14T10:37:53.197Z,6.20
2017-10-14T10:40:21.637Z,7.40
2017-10-14T10:42:50.041Z,7.43
2017-10-14T10:45:18.514Z,7.50
2017-10-14T10:47:46.950Z,7.30
2017-10-14T10:50:15.368Z,6.63
2017-10-14T10:52:43.965Z,7.87
2017-10-14T10:55:12.393Z,7.77
2017-10-14T10:57:40.802Z,8.03
2017-10-14T11:00:09.278Z,8.57
2017-10-14T11:02:37.707Z,6.57
2017-10-14T11:05:06.149Z,9.47
2017-10-14T11:07:34.615Z,9.97
2017-10-14T11:10:03.048Z,8.77
2017-10-14T11:12:31.586Z,9.60
2017-10-14T11:14:59.997Z,9.60
2017-10-14T11:17:29.181Z,9.13
2017-10-14T11:19:57.703Z,9.30
2017-10-14T11:22:26.190Z,8.10
2017-10-14T11:24:54.626Z,8.30
2017-10-14T11:27:23.066Z,9.70
2017-10-14T11:29:51.474Z,8.10
2017-10-14T11:32:19.889Z,8.90
2017-10-14T11:34:49.120Z,8.10
2017-10-14T11:37:17.518Z,8.97
2017-10-14T11:39:45.922Z,8.80
2017-10-14T11:42:14.418Z,7.20
2017-10-14T11:44:43.605Z,7.00
2017-10-14T11:47:12.019Z,8.53
2017-10-14T11:49:40.455Z,8.70
2017-10-14T11:52:08.865Z,8.03
2017-10-14T11:54:38.042Z,7.03
2017-10-14T11:57:06.484Z,8.00
2017-10-14T11:59:34.889Z,7.73
2017-10-14T12:02:03.302Z,7.50
2017-10-14T12:04:31.787Z,6.10
2017-10-14T12:07:00.200Z,7.13
2017-10-14T12:09:28.621Z,6.17
2017-10-14T12:11:57.087Z,7.10
2017-10-14T12:14:25.525Z,8.40
2017-10-14T12:16:53.929Z,7.63
2017-10-14T12:19:22.378Z,8.20
2017-10-14T12:21:51.566Z,7.30
2017-10-14T12:24:20.762Z,7.40
2017-10-14T12:26:49.238Z,7.10
2017-10-14T12:29:17.655Z,6.40
2017-10-14T12:31:46.082Z,6.20
2017-10-14T12:34:14.529Z,8.03
2017-10-14T12:36:42.934Z,7.33
2017-10-14T12:39:11.338Z,6.50
2017-10-14T12:41:39.779Z,6.60
2017-10-14T12:44:08.959Z,6.80
2017-10-14T12:46:37.171Z,8.47
2017-10-14T12:49:05.617Z,8.13
2017-10-14T12:51:34.015Z,8.17
2017-10-14T12:54:03.179Z,8.07
2017-10-14T12:56:31.610Z,7.90
2017-10-14T12:59:00.034Z,9.90
2017-10-14T13:01:29.213Z,9.73
2017-10-14T13:03:57.697Z,8.77
2017-10-14T13:06:26.100Z,8.10
2017-10-14T13:08:54.545Z,7.97
2017-10-14T13:11:23.061Z,8.60
2017-10-14T13:13:51.487Z,7.80
2017-10-14T13:16:19.898Z,7.50
2017-10-14T13:18:48.324Z,8.50
2017-10-14T13:21:16.728Z,7.87
2017-10-14T13:23:45.139Z,8.37
2017-10-14T13:26:13.571Z,8.37
2017-10-14T13:28:41.971Z,9.07
2017-10-14T13:31:10.394Z,7.70
2017-10-14T13:33:38.807Z,7.73
2017-10-14T13:36:07.213Z,8.63
2017-10-14T13:38:35.620Z,10.00
2017-10-14T13:41:04.066Z,10.13
2017-10-14T13:43:32.461Z,8.63
2017-10-14T13:46:00.869Z,10.87
2017-10-14T13:48:29.284Z,8.03
2017-10-14T13:50:57.688Z,10.43
2017-10-14T13:53:26.098Z,10.23
2017-10-14T13:55:54.541Z,8.47
2017-10-14T13:58:22.952Z,8.13
2017-10-14T14:00:51.403Z,8.93
2017-10-14T15:02:07.477Z,9.23
2017-10-14T15:04:35.877Z,10.23
2017-10-14T15:07:05.054Z,10.53
2017-10-14T15:09:33.478Z,9.40
2017-10-14T15:12:01.892Z,10.83
2017-10-14T15:14:30.301Z,11.00
2017-10-14T15:16:58.719Z,11.00
2017-10-14T15:19:27.116Z,8.93
2017-10-14T15:21:56.279Z,9.10
2017-10-14T15:24:24.706Z,9.23
2017-10-14T15:26:53.115Z,10.47
2017-10-14T15:29:21.530Z,10.67
2017-10-14T15:31:49.947Z,12.80
2017-10-14T15:34:18.194Z,14.30
2017-10-14T15:36:46.609Z,11.93
2017-10-14T15:39:15.047Z,11.70
2017-10-14T15:41:44.213Z,11.33
2017-10-14T15:44:12.627Z,11.30
2017-10-14T15:46:41.098Z,11.60
2017-10-14T15:49:09.501Z,13.10
2017-10-14T15:51:37.905Z,17.67
2017-10-14T15:54:06.323Z,19.80
2017-10-14T15:56:34.757Z,17.17
2017-10-14T15:59:03.168Z,17.80
2017-10-14T16:01:31.582Z,15.93
2017-10-14T16:04:00.014Z,15.00
2017-10-14T16:06:28.426Z,16.00
2017-10-14T16:08:56.825Z,17.10
2017-10-14T16:11:25.695Z,14.97
2017-10-14T16:13:54.099Z,15.20
2017-10-14T16:16:23.279Z,16.03
2017-10-14T16:18:51.703Z,16.47
2017-10-14T16:21:20.131Z,15.30
2017-10-14T16:23:48.378Z,19.37
2017-10-14T16:26:16.783Z,21.27
2017-10-14T16:28:45.016Z,25.27
2017-10-14T16:31:13.441Z,26.23
2017-10-14T16:33:41.521Z,28.80
2017-10-14T16:36:09.933Z,30.33
2017-10-14T16:38:38.377Z,35.53
2017-10-14T16:41:06.781Z,26.33
2017-10-14T16:43:35.976Z,19.73
2017-10-14T16:46:04.668Z,18.40
2017-10-14T16:48:33.078Z,17.20
2017-10-14T16:51:01.485Z,15.40
2017-10-14T16:53:29.982Z,16.60
2017-10-14T16:55:58.420Z,16.93
2017-10-14T16:58:26.825Z,19.83
2017-10-14T17:00:55.253Z,17.30
2017-10-14T17:03:23.653Z,18.53
2017-10-14T20:40:55.262Z,18.55
2017-10-14T20:43:24.043Z,17.67
2017-10-14T20:45:52.831Z,18.60
2017-10-14T20:48:21.716Z,17.83
2017-10-14T20:50:50.741Z,17.52
2017-10-14T20:53:20.377Z,17.90
2017-10-14T20:55:50.016Z,17.60
2017-10-14T20:58:18.900Z,18.70
2017-10-14T21:00:47.312Z,19.67
2017-10-14T21:03:16.928Z,18.83
2017-10-14T21:05:46.601Z,18.52
2017-10-14T21:08:15.491Z,20.05
2017-10-14T21:10:45.403Z,17.25
2017-10-14T21:13:15.496Z,19.30
2017-10-14T21:15:44.865Z,19.15
2017-10-14T21:18:14.922Z,19.10
2017-10-14T21:20:45.109Z,17.42
2017-10-14T21:23:14.944Z,16.77
2017-10-14T21:25:44.235Z,17.10
2017-10-14T21:28:14.444Z,17.27
2017-10-14T21:30:44.593Z,16.80
2017-10-14T21:33:13.887Z,15.77
2017-10-14T21:35:42.322Z,15.43
2017-10-14T21:38:11.086Z,18.02
2017-10-14T21:40:39.847Z,14.68
2017-10-14T21:43:08.705Z,17.45
2017-10-14T21:45:37.474Z,15.00
2017-10-14T21:48:06.317Z,15.40
2017-10-14T21:50:34.928Z,15.88
2017-10-14T21:53:04.504Z,18.58
2017-10-14T21:55:33.377Z,16.42
2017-10-14T21:58:02.223Z,17.48
2017-10-14T22:00:31.128Z,17.90
2017-10-14T22:03:00.087Z,17.40
2017-10-14T22:05:28.890Z,16.70
2017-10-14T22:07:58.442Z,19.12
2017-10-14T22:10:27.230Z,19.17
2017-10-14T22:12:55.982Z,18.42
2017-10-14T22:15:25.554Z,17.75
2017-10-14T22:17:54.399Z,15.93
2017-10-14T22:20:23.652Z,16.85
2017-10-14T22:22:54.501Z,16.40
2017-10-14T22:25:23.982Z,16.40
2017-10-14T22:30:29.198Z,16.45
2017-10-14T22:33:01.034Z,15.30
2017-10-14T22:35:36.063Z,15.23
2017-10-14T22:38:05.822Z,15.48
2017-10-14T22:40:34.735Z,15.75
2017-10-14T22:43:03.814Z,17.30
2017-10-14T22:45:33.721Z,17.77
2017-10-14T22:48:02.617Z,18.67
2017-10-14T22:50:32.664Z,17.20
2017-10-14T22:53:02.023Z,20.12
2017-10-14T22:55:33.515Z,16.75
2017-10-14T22:58:05.051Z,16.02
2017-10-14T23:00:37.979Z,16.12
2017-10-14T23:03:09.169Z,14.75
2017-10-14T23:05:39.142Z,14.00
2017-10-14T23:08:08.845Z,16.27
2017-10-14T23:10:37.659Z,15.00
2017-10-14T23:13:06.511Z,14.93
2017-10-14T23:15:35.479Z,15.05
2017-10-14T23:18:04.226Z,15.73
2017-10-14T23:20:33.074Z,15.68
2017-10-14T23:23:02.075Z,15.23
2017-10-14T23:25:30.871Z,16.23
2017-10-14T23:27:59.738Z,15.52
2017-10-14T23:30:28.582Z,16.55
2017-10-14T23:32:58.134Z,15.15
2017-10-14T23:35:26.942Z,14.68
2017-10-14T23:37:55.729Z,14.30
2017-10-14T23:40:24.543Z,15.07
2017-10-14T23:42:53.358Z,14.38
2017-10-14T23:45:22.342Z,14.93
2017-10-14T23:47:52.283Z,14.82
2017-10-14T23:50:21.113Z,13.90
2017-10-14T23:52:49.910Z,13.48
2017-10-14T23:55:18.722Z,14.63
2017-10-14T23:57:48.369Z,14.05
